createdAt,value
2022-12-23T00:00:04.703Z,994.85
2022-12-23T00:03:04.834Z,994.83
2022-12-23T00:06:04.718Z,994.84
2022-12-23T00:09:04.692Z,994.81
2022-12-23T00:12:04.691Z,994.84
2022-12-23T00:15:04.692Z,994.87
2022-12-23T00:18:04.708Z,994.91
2022-12-23T00:21:08.231Z,994.87
2022-12-23T00:24:04.691Z,994.78
2022-12-23T00:27:04.696Z,994.78
2022-12-23T00:30:04.686Z,994.74
2022-12-23T00:33:04.695Z,994.71
2022-12-23T00:36:04.953Z,994.66
2022-12-23T00:39:04.708Z,994.67
2022-12-23T00:42:04.736Z,994.71
2022-12-23T00:45:04.700Z,994.66
2022-12-23T00:48:04.713Z,994.65
2022-12-23T00:51:04.694Z,994.65
2022-12-23T00:54:04.709Z,994.65
2022-12-23T00:57:04.706Z,994.62
2022-12-23T01:00:04.700Z,994.58
2022-12-23T01:03:04.853Z,994.65
2022-12-23T01:06:04.700Z,994.69
2022-12-23T01:09:04.704Z,994.68
2022-12-23T01:12:04.703Z,994.71
2022-12-23T01:15:04.731Z,994.7
2022-12-23T01:18:04.731Z,994.75
2022-12-23T01:21:04.701Z,994.72
2022-12-23T01:24:04.695Z,994.73
2022-12-23T01:27:04.714Z,994.76
2022-12-23T01:30:04.704Z,994.85
2022-12-23T01:33:04.706Z,994.94
2022-12-23T01:36:04.699Z,995.05
2022-12-23T01:39:04.713Z,995.09
2022-12-23T01:42:04.716Z,995.11
2022-12-23T01:45:04.714Z,995.15
2022-12-23T01:48:04.706Z,995.21
2022-12-23T01:51:04.708Z,995.21
2022-12-23T01:54:04.709Z,995.23
2022-12-23T01:57:04.713Z,995.31
2022-12-23T02:00:04.728Z,995.32
2022-12-23T02:03:04.819Z,995.32
2022-12-23T02:06:04.718Z,995.35
2022-12-23T02:09:04.718Z,995.32
2022-12-23T02:12:04.716Z,995.37
2022-12-23T02:15:04.722Z,995.32
2022-12-23T02:18:04.717Z,995.41
2022-12-23T02:21:04.724Z,995.46
2022-12-23T02:24:04.723Z,995.48
2022-12-23T02:27:04.727Z,995.57
2022-12-23T02:30:04.846Z,995.63
2022-12-23T02:33:04.719Z,995.7
2022-12-23T02:36:04.724Z,995.7
2022-12-23T02:39:04.731Z,995.76
2022-12-23T02:42:04.725Z,995.83
2022-12-23T02:45:04.733Z,995.78
2022-12-23T02:48:04.729Z,995.84
2022-12-23T02:51:04.719Z,995.85
2022-12-23T02:54:04.733Z,995.88
2022-12-23T02:57:04.718Z,995.94
2022-12-23T03:00:04.716Z,995.91
2022-12-23T03:03:04.785Z,995.93
2022-12-23T03:06:04.730Z,995.86
2022-12-23T03:09:04.730Z,995.73
2022-12-23T03:12:04.725Z,995.76
2022-12-23T03:15:04.724Z,995.8
2022-12-23T03:18:04.736Z,995.8
2022-12-23T03:21:04.734Z,995.87
2022-12-23T03:24:04.752Z,995.92
2022-12-23T03:27:04.745Z,995.98
2022-12-23T03:30:04.742Z,995.96
2022-12-23T03:33:04.761Z,995.95
2022-12-23T03:36:04.743Z,996.02
2022-12-23T03:39:04.746Z,996.06
2022-12-23T03:42:04.741Z,996.05
2022-12-23T03:45:36.746Z,996.09
2022-12-23T03:48:04.748Z,996.18
2022-12-23T03:51:04.766Z,996.19
2022-12-23T03:54:04.746Z,996.24
2022-12-23T03:57:04.747Z,996.3
2022-12-23T04:00:04.741Z,996.39
2022-12-23T04:03:04.917Z,996.45
2022-12-23T04:06:04.738Z,996.39
2022-12-23T04:09:04.739Z,996.41
2022-12-23T04:12:04.736Z,996.44
2022-12-23T04:15:09.090Z,996.51
2022-12-23T04:18:04.746Z,996.61
2022-12-23T04:21:04.749Z,996.66
2022-12-23T04:24:04.747Z,996.7
2022-12-23T04:27:04.749Z,996.6
2022-12-23T04:30:04.750Z,996.64
2022-12-23T04:33:04.751Z,996.61
2022-12-23T04:36:04.756Z,996.61
2022-12-23T04:39:04.753Z,996.58
2022-12-23T04:42:04.757Z,996.53
2022-12-23T04:45:04.784Z,996.56
2022-12-23T04:48:04.757Z,996.52
2022-12-23T04:51:04.760Z,996.61
2022-12-23T04:54:04.752Z,996.7
2022-12-23T04:57:04.828Z,996.75
2022-12-23T05:00:04.777Z,996.81
2022-12-23T05:03:04.905Z,996.81
2022-12-23T05:06:04.792Z,996.75
2022-12-23T05:09:04.779Z,996.8
2022-12-23T05:12:04.776Z,996.89
2022-12-23T05:15:04.775Z,996.86
2022-12-23T05:18:04.774Z,996.77
2022-12-23T05:21:04.785Z,996.69
2022-12-23T05:24:04.778Z,996.71
2022-12-23T05:27:04.776Z,996.87
2022-12-23T05:30:04.786Z,996.85
2022-12-23T05:33:04.826Z,996.87
2022-12-23T05:36:04.764Z,996.91
2022-12-23T05:39:04.788Z,996.93
2022-12-23T05:42:04.783Z,996.89
2022-12-23T05:45:04.774Z,996.95
2022-12-23T05:48:04.794Z,997
2022-12-23T05:51:04.777Z,996.99
2022-12-23T05:54:04.780Z,996.96
2022-12-23T05:57:04.815Z,997
2022-12-23T06:00:04.776Z,996.97
2022-12-23T06:03:04.893Z,997.07
2022-12-23T06:06:04.792Z,997.03
2022-12-23T06:09:04.790Z,997.02
2022-12-23T06:12:04.792Z,997.04
2022-12-23T06:15:04.860Z,997.12
2022-12-23T06:18:04.787Z,997.14
2022-12-23T06:21:04.793Z,997.11
2022-12-23T06:24:04.793Z,997.09
2022-12-23T06:27:04.795Z,997.1
2022-12-23T06:30:04.793Z,997.11
2022-12-23T06:33:04.794Z,997.14
2022-12-23T06:36:04.792Z,997.2
2022-12-23T06:39:04.792Z,997.25
2022-12-23T06:42:04.796Z,997.29
2022-12-23T06:45:04.834Z,997.34
2022-12-23T06:48:04.790Z,997.3
2022-12-23T06:51:04.799Z,997.32
2022-12-23T06:54:04.800Z,997.34
2022-12-23T06:57:04.835Z,997.38
2022-12-23T07:00:04.818Z,997.44
2022-12-23T07:03:04.860Z,997.55
2022-12-23T07:06:04.849Z,997.53
2022-12-23T07:09:04.789Z,997.46
2022-12-23T07:12:04.806Z,997.44
2022-12-23T07:15:04.851Z,997.37
2022-12-23T07:18:04.785Z,997.29
2022-12-23T07:21:04.784Z,997.27
2022-12-23T07:24:04.791Z,997.22
2022-12-23T07:27:04.792Z,997.26
2022-12-23T07:30:04.802Z,997.23
2022-12-23T07:33:04.849Z,997.32
2022-12-23T07:36:04.870Z,997.39
2022-12-23T07:39:04.816Z,997.43
2022-12-23T07:42:25.356Z,997.5
2022-12-23T07:45:04.846Z,997.58
2022-12-23T07:48:04.811Z,997.65
2022-12-23T07:51:04.818Z,997.71
2022-12-23T07:54:04.800Z,997.74
2022-12-23T07:57:04.814Z,997.8
2022-12-23T08:00:04.857Z,997.79
2022-12-23T08:03:04.972Z,997.8
2022-12-23T08:06:04.816Z,997.7
2022-12-23T08:09:04.807Z,997.69
2022-12-23T08:12:04.817Z,997.79
2022-12-23T08:15:04.923Z,997.79
2022-12-23T08:18:04.820Z,997.69
2022-12-23T08:21:04.827Z,997.69
2022-12-23T08:24:04.828Z,997.63
2022-12-23T08:27:04.825Z,997.61
2022-12-23T08:30:04.825Z,997.64
2022-12-23T08:33:04.824Z,997.67
2022-12-23T08:36:04.829Z,997.66
2022-12-23T08:39:04.820Z,997.65
2022-12-23T08:42:04.819Z,997.68
2022-12-23T08:45:04.849Z,997.63
2022-12-23T08:48:04.819Z,997.59
2022-12-23T08:51:04.815Z,997.63
2022-12-23T08:54:04.835Z,997.6
2022-12-23T08:57:04.828Z,997.62
2022-12-23T09:00:04.866Z,997.74
2022-12-23T09:03:04.923Z,997.75
2022-12-23T09:06:04.826Z,997.79
2022-12-23T09:09:04.818Z,997.81
2022-12-23T09:12:04.823Z,997.84
2022-12-23T09:15:04.853Z,997.83
2022-12-23T09:18:04.832Z,997.82
2022-12-23T09:21:04.828Z,997.88
2022-12-23T09:24:04.833Z,997.97
2022-12-23T09:27:04.843Z,997.98
2022-12-23T09:30:04.834Z,997.91
2022-12-23T09:33:04.826Z,997.84
2022-12-23T09:36:04.828Z,997.86
2022-12-23T09:39:04.861Z,997.76
2022-12-23T09:42:04.834Z,997.64
2022-12-23T09:45:04.877Z,997.57
2022-12-23T09:48:04.837Z,997.55
2022-12-23T09:51:04.837Z,997.66
2022-12-23T09:54:04.830Z,997.74
2022-12-23T09:57:04.836Z,997.68
2022-12-23T10:00:04.839Z,997.6
2022-12-23T10:03:04.994Z,997.65
2022-12-23T10:06:04.830Z,997.75
2022-12-23T10:09:04.819Z,997.79
2022-12-23T10:12:04.831Z,997.68
2022-12-23T10:15:04.890Z,997.54
2022-12-23T10:18:04.830Z,997.48
2022-12-23T10:21:04.901Z,997.52
2022-12-23T10:24:04.836Z,997.55
2022-12-23T10:27:04.831Z,997.41
2022-12-23T10:30:20.210Z,997.31
2022-12-23T10:33:04.832Z,997.26
2022-12-23T10:36:04.855Z,997.23
2022-12-23T10:39:04.829Z,997.16
2022-12-23T10:42:04.837Z,997.16
2022-12-23T10:45:04.871Z,997.17
2022-12-23T10:48:07.396Z,997.06
2022-12-23T10:51:04.836Z,997.06
2022-12-23T10:54:04.840Z,997.11
2022-12-23T10:57:04.835Z,997.08
2022-12-23T11:00:04.831Z,996.99
2022-12-23T11:03:04.943Z,996.86
2022-12-23T11:06:04.841Z,996.78
2022-12-23T11:09:04.842Z,996.8
2022-12-23T11:12:04.840Z,996.73
2022-12-23T11:15:04.864Z,996.66
2022-12-23T11:18:04.840Z,996.61
2022-12-23T11:21:04.837Z,996.56
2022-12-23T11:24:04.843Z,996.51
2022-12-23T11:27:04.834Z,996.46
2022-12-23T11:30:04.832Z,996.34
2022-12-23T11:33:04.835Z,996.17
2022-12-23T11:36:04.863Z,996.12
2022-12-23T11:39:04.935Z,996.08
2022-12-23T11:42:04.849Z,996.05
2022-12-23T11:45:04.893Z,996.06
2022-12-23T11:48:04.856Z,995.93
2022-12-23T11:51:04.862Z,995.84
2022-12-23T11:54:04.858Z,995.82
2022-12-23T11:57:04.890Z,995.79
2022-12-23T12:00:04.839Z,995.73
2022-12-23T12:03:04.929Z,995.68
2022-12-23T12:06:04.849Z,995.61
2022-12-23T12:09:04.855Z,995.5
2022-12-23T12:12:04.849Z,995.41
2022-12-23T12:15:04.880Z,995.35
2022-12-23T12:18:04.847Z,995.36
2022-12-23T12:21:04.857Z,995.33
2022-12-23T12:24:17.566Z,995.23
2022-12-23T12:27:04.862Z,995.11
2022-12-23T12:30:08.612Z,995.16
2022-12-23T12:33:04.853Z,995.21
2022-12-23T12:36:05.558Z,995.15
2022-12-23T12:39:04.862Z,995.05
2022-12-23T12:42:05.917Z,995.03
2022-12-23T12:45:04.884Z,995.05
2022-12-23T12:48:12.991Z,994.97
2022-12-23T12:51:04.850Z,994.99
2022-12-23T12:54:06.049Z,994.95
2022-12-23T12:57:04.882Z,994.92
2022-12-23T13:00:06.630Z,994.87
2022-12-23T13:03:04.913Z,994.77
2022-12-23T13:06:04.866Z,994.6
2022-12-23T13:09:04.860Z,994.5
2022-12-23T13:12:04.861Z,994.48
2022-12-23T13:15:04.892Z,994.37
2022-12-23T13:18:04.882Z,994.3
2022-12-23T13:21:04.854Z,994.22
2022-12-23T13:24:04.863Z,994.14
2022-12-23T13:27:04.857Z,994.08
2022-12-23T13:30:04.965Z,993.94
2022-12-23T13:33:04.858Z,993.89
2022-12-23T13:36:05.889Z,993.92
2022-12-23T13:39:04.867Z,993.97
2022-12-23T13:42:06.168Z,993.9
2022-12-23T13:45:04.876Z,993.89
2022-12-23T13:48:05.539Z,993.79
2022-12-23T13:51:04.867Z,993.71
2022-12-23T13:54:05.323Z,993.77
2022-12-23T13:57:04.859Z,993.57
2022-12-23T14:00:06.385Z,993.6
2022-12-23T14:03:04.927Z,993.41
2022-12-23T14:06:04.874Z,993.42
2022-12-23T14:09:04.872Z,993.45
2022-12-23T14:12:04.866Z,993.59
2022-12-23T14:15:04.879Z,993.38
2022-12-23T14:18:05.094Z,993.38
2022-12-23T14:21:04.854Z,993.32
2022-12-23T14:24:04.997Z,993.32
2022-12-23T14:27:04.859Z,993.32
2022-12-23T14:30:06.189Z,993.17
2022-12-23T14:33:04.874Z,993.06
2022-12-23T14:36:04.938Z,992.98
2022-12-23T14:39:04.866Z,992.91
2022-12-23T14:42:07.479Z,992.96
2022-12-23T14:45:04.882Z,992.88
2022-12-23T14:48:04.866Z,992.81
2022-12-23T14:51:04.868Z,992.82
2022-12-23T14:54:04.859Z,992.72
2022-12-23T14:57:04.858Z,992.7
2022-12-23T15:00:04.877Z,992.8
2022-12-23T15:03:04.984Z,992.84
2022-12-23T15:06:04.879Z,992.8
2022-12-23T15:09:04.859Z,992.74
2022-12-23T15:12:04.880Z,992.8
2022-12-23T15:15:04.896Z,992.92
2022-12-23T15:18:04.878Z,992.94
2022-12-23T15:21:04.870Z,993.09
2022-12-23T15:24:04.869Z,992.96
2022-12-23T15:27:25.696Z,992.75
2022-12-23T15:30:04.870Z,992.86
2022-12-23T15:33:06.381Z,992.8
2022-12-23T15:36:04.879Z,992.71
2022-12-23T15:39:04.863Z,992.89
2022-12-23T15:42:04.869Z,993.11
2022-12-23T15:45:04.911Z,993.04
2022-12-23T15:48:04.876Z,993.05
2022-12-23T15:51:04.956Z,993
2022-12-23T15:54:04.880Z,992.87
2022-12-23T15:57:04.947Z,992.99
2022-12-23T16:00:04.891Z,992.86
2022-12-23T16:03:08.848Z,992.82
2022-12-23T16:06:04.899Z,992.82
2022-12-23T16:09:04.919Z,992.78
2022-12-23T16:12:04.911Z,992.76
2022-12-23T16:15:04.941Z,992.69
2022-12-23T16:18:04.940Z,992.71
2022-12-23T16:21:04.930Z,992.69
2022-12-23T16:24:04.935Z,992.62
2022-12-23T16:27:04.936Z,992.53
2022-12-23T16:30:04.941Z,992.54
2022-12-23T16:33:04.927Z,992.52
2022-12-23T16:36:04.962Z,992.56
2022-12-23T16:39:04.947Z,992.59
2022-12-23T16:42:04.948Z,992.61
2022-12-23T16:45:04.986Z,992.58
2022-12-23T16:48:04.959Z,992.6
2022-12-23T16:51:04.963Z,992.68
2022-12-23T16:54:04.967Z,992.7
2022-12-23T16:57:04.957Z,992.68
2022-12-23T17:00:04.966Z,992.71
2022-12-23T17:03:04.953Z,992.88
2022-12-23T17:06:04.966Z,992.89
2022-12-23T17:09:04.966Z,992.96
2022-12-23T17:12:04.963Z,993.09
2022-12-23T17:15:04.976Z,993.16
2022-12-23T17:18:04.966Z,993.06
2022-12-23T17:21:04.987Z,993.05
2022-12-23T17:24:04.965Z,993.07
2022-12-23T17:27:04.966Z,993
2022-12-23T17:30:04.961Z,992.87
2022-12-23T17:33:04.975Z,993.06
2022-12-23T17:36:05.002Z,993.08
2022-12-23T17:39:04.970Z,993.13
2022-12-23T17:42:04.965Z,993.21
2022-12-23T17:45:04.978Z,993.24
2022-12-23T17:48:04.964Z,993.31
2022-12-23T17:51:04.968Z,993.36
2022-12-23T17:54:04.987Z,993.34
2022-12-23T17:57:05.007Z,993.29
2022-12-23T18:00:04.982Z,993.28
2022-12-23T18:03:04.974Z,993.38
2022-12-23T18:06:04.981Z,993.38
2022-12-23T18:09:04.975Z,993.5
2022-12-23T18:12:04.980Z,993.51
2022-12-23T18:15:04.984Z,993.52
2022-12-23T18:18:04.987Z,993.52
2022-12-23T18:21:04.978Z,993.47
2022-12-23T18:24:04.979Z,993.52
2022-12-23T18:27:04.977Z,993.57
2022-12-23T18:30:04.977Z,993.59
2022-12-23T18:33:04.990Z,993.67
2022-12-23T18:36:05.020Z,993.73
2022-12-23T18:39:04.980Z,993.75
2022-12-23T18:42:04.980Z,993.85
2022-12-23T18:45:04.997Z,993.83
2022-12-23T18:48:04.994Z,993.87
2022-12-23T18:51:05.005Z,993.91
2022-12-23T18:54:04.986Z,994.04
2022-12-23T18:57:04.993Z,994.11
2022-12-23T19:00:04.988Z,994.19
2022-12-23T19:03:05.025Z,994.21
2022-12-23T19:06:04.991Z,994.15
2022-12-23T19:09:04.985Z,994.19
2022-12-23T19:12:05.003Z,994.2
2022-12-23T19:15:05.003Z,994.23
2022-12-23T19:18:04.988Z,994.27
2022-12-23T19:21:04.991Z,994.3
2022-12-23T19:24:04.983Z,994.35
2022-12-23T19:27:04.984Z,994.5
2022-12-23T19:30:05.090Z,994.49
2022-12-23T19:33:04.994Z,994.54
2022-12-23T19:36:04.992Z,994.64
2022-12-23T19:39:04.983Z,994.69
2022-12-23T19:42:04.991Z,994.75
2022-12-23T19:45:05.011Z,994.69
2022-12-23T19:48:04.991Z,994.76
2022-12-23T19:51:04.989Z,994.88
2022-12-23T19:54:04.994Z,994.92
2022-12-23T19:57:04.993Z,994.98
2022-12-23T20:00:05.011Z,994.98
2022-12-23T20:03:05.051Z,995.03
2022-12-23T20:06:04.996Z,994.96
2022-12-23T20:09:04.995Z,994.99
2022-12-23T20:12:04.989Z,995.05
2022-12-23T20:15:05.007Z,995.13
2022-12-23T20:18:05.002Z,995.18
2022-12-23T20:21:05.004Z,995.14
2022-12-23T20:24:05.011Z,995.25
2022-12-23T20:27:09.461Z,995.32
2022-12-23T20:30:04.998Z,995.38
2022-12-23T20:33:05.029Z,995.46
2022-12-23T20:36:05.014Z,995.53
2022-12-23T20:39:04.996Z,995.65
2022-12-23T20:42:05.001Z,995.77
2022-12-23T20:45:05.008Z,995.65
2022-12-23T20:48:05.007Z,995.73
2022-12-23T20:51:05.010Z,995.76
2022-12-23T20:54:05.021Z,995.66
2022-12-23T20:57:04.995Z,995.74
2022-12-23T21:00:05.059Z,995.74
2022-12-23T21:03:10.145Z,995.75
2022-12-23T21:06:04.998Z,995.83
2022-12-23T21:09:05.004Z,995.83
2022-12-23T21:12:04.998Z,995.89
2022-12-23T21:15:05.012Z,995.91
2022-12-23T21:18:05.017Z,995.94
2022-12-23T21:21:05.001Z,996.02
2022-12-23T21:24:05.227Z,996.19
2022-12-23T21:27:05.009Z,996.25
2022-12-23T21:30:05.106Z,996.19
2022-12-23T21:33:05.001Z,996.25
2022-12-23T21:36:05.013Z,996.29
2022-12-23T21:39:04.991Z,996.27
2022-12-23T21:42:05.007Z,996.2
2022-12-23T21:45:05.015Z,996.34
2022-12-23T21:48:04.999Z,996.43
2022-12-23T21:51:05.015Z,996.41
2022-12-23T21:54:05.006Z,996.43
2022-12-23T21:57:05.017Z,996.4
2022-12-23T22:00:04.999Z,996.54
2022-12-23T22:03:05.006Z,996.61
2022-12-23T22:06:09.880Z,996.73
2022-12-23T22:09:05.022Z,996.81
2022-12-23T22:12:05.006Z,996.77
2022-12-23T22:15:09.585Z,996.7
2022-12-23T22:18:05.004Z,996.69
2022-12-23T22:21:05.002Z,996.76
2022-12-23T22:24:05.011Z,996.87
2022-12-23T22:27:05.011Z,996.9
2022-12-23T22:30:05.013Z,996.89
2022-12-23T22:33:05.004Z,996.91
2022-12-23T22:36:05.044Z,996.9
2022-12-23T22:39:05.905Z,996.99
2022-12-23T22:42:05.015Z,997
2022-12-23T22:45:05.020Z,997.12
2022-12-23T22:48:05.010Z,997.02
2022-12-23T22:51:05.015Z,997.13
2022-12-23T22:54:05.023Z,997.18
2022-12-23T22:57:05.014Z,997.25
2022-12-23T23:00:11.769Z,997.36
2022-12-23T23:03:05.009Z,997.4
2022-12-23T23:06:05.100Z,997.48
2022-12-23T23:09:05.006Z,997.6
2022-12-23T23:12:05.032Z,997.64
2022-12-23T23:15:05.036Z,997.71
2022-12-23T23:18:05.016Z,997.73
2022-12-23T23:21:05.013Z,997.83
2022-12-23T23:24:05.014Z,997.89
2022-12-23T23:27:05.027Z,997.92
2022-12-23T23:30:05.029Z,997.94
2022-12-23T23:33:05.014Z,997.93
2022-12-23T23:36:05.024Z,998.04
2022-12-23T23:39:05.020Z,998.1
2022-12-23T23:42:05.018Z,998.13
2022-12-23T23:45:05.020Z,998.28
2022-12-23T23:48:05.020Z,998.21
2022-12-23T23:51:05.005Z,998.25
2022-12-23T23:54:05.016Z,998.23
2022-12-23T23:57:05.023Z,998.17
